Ana Sayfa
METAR-TAF:

METAR-TAF

Havaalanları :

Târgu Mureş, Romanya

Enlem: 46-32N, Boylam: 024-32E, yükseklik: 308 m

Güncel hava durumu gözlemi

Rapor saat 19:00 UTC de 17 dakika önce yapıldı.
Rüzgar batı/güneybatıdan 4 kt
Sıcaklık 0°C
Nem 80%
Basınç 1019 hPa
Görüş mesafesi 10 km veya daha fazla

METAR: LRTM 241900Z AUTO 25004KT 9999 NCD M00/M03 Q1019

Saat: 21:17 (19:17 UTC)

Tahmin

Rapor saat 17:00 UTC de 2 saat ve 17 dakika önce yapıldı.
Ayın 24'si saat 18 UTC'den ayın 25'si saat 03 UTC'ye kadar geçerli Tahmin
Rüzgar değişken yönden 4 kt
Görüş mesafesi 10 km veya daha fazla
4500 ft yükseklikte parçalı bulutlu

TAF: LRTM 241700Z 2418/2503 VRB04KT 9999 SCT045

4.000'den fazla havaalanı için hava durumu gözlemleri ve tahminleri (METAR ve TAF raporları).

Kullanılabilir istasyonlar harita üzerinde sarı ve kırmızı noktalarla gösterilir.

İstasyonun adını görmek için fareyi noktanın üzerinde gezdirin.

Sonrasında hava gözlem ve tahminlerini görmek için tıklayın.

Haritayı değiştirmek için: yaklaştırmak için siyah artı işaretli yeşil düğmeye ve uzaklaştırmak için de eksi işaretli düğmeye hızla tıklayın; bitişik haritalar için yeşil okları kullanın.


METAR-TAF: